createdAt,value
2022-10-11T00:00:21.009Z,100020.81
2022-10-11T00:02:48.965Z,100019.81
2022-10-11T00:05:16.839Z,100022.50
2022-10-11T00:07:44.447Z,100010.81
2022-10-11T00:10:12.443Z,100008.41
2022-10-11T00:12:40.074Z,100011.22
2022-10-11T00:15:08.905Z,100015.09
2022-10-11T00:17:36.755Z,100005.41
2022-10-11T00:20:05.030Z,100007.13
2022-10-11T00:22:32.737Z,99998.03
2022-10-11T00:25:00.786Z,100006.63
2022-10-11T00:27:28.545Z,100008.62
2022-10-11T00:29:56.416Z,99998.16
2022-10-11T00:32:24.417Z,100003.25
2022-10-11T00:34:52.107Z,99999.16
2022-10-11T00:37:20.468Z,99998.94
2022-10-11T00:39:49.439Z,99996.13
2022-10-11T00:42:17.849Z,100000.81
2022-10-11T00:44:49.576Z,100000.22
2022-10-11T00:47:22.668Z,99997.66
2022-10-11T00:49:53.792Z,99996.72
2022-10-11T00:52:38.358Z,100001.44
2022-10-11T00:55:09.860Z,99998.94
2022-10-11T00:57:40.783Z,99996.84
2022-10-11T01:00:11.556Z,100002.22
2022-10-11T01:02:39.487Z,99993.56
2022-10-11T01:05:28.205Z,99987.56
2022-10-11T01:08:00.217Z,99989.84
2022-10-11T01:10:28.431Z,99991.66
2022-10-11T01:13:11.244Z,99986.13
2022-10-11T01:16:12.012Z,99988.03
2022-10-11T01:18:59.421Z,99983.53
2022-10-11T01:21:48.043Z,99987.97
2022-10-11T01:24:41.695Z,99986.63
2022-10-11T01:27:28.364Z,99980.16
2022-10-11T01:30:01.728Z,99983.22
2022-10-11T01:32:54.755Z,99985.13
2022-10-11T01:35:35.327Z,99988.22
2022-10-11T01:38:11.099Z,99989.31
2022-10-11T01:41:00.165Z,99988.91
2022-10-11T01:43:29.017Z,99986.72
2022-10-11T01:45:58.212Z,99983.31
2022-10-11T01:48:25.803Z,99986.22
2022-10-11T01:50:55.803Z,99985.34
2022-10-11T01:53:35.505Z,99988.63
2022-10-11T01:56:27.341Z,99980.31
2022-10-11T01:59:23.431Z,99979.50
2022-10-11T02:02:24.527Z,99973.62
2022-10-11T02:05:06.410Z,99972.22
2022-10-11T02:07:37.124Z,99975.91
2022-10-11T02:10:26.917Z,99967.22
2022-10-11T02:13:16.654Z,99963.84
2022-10-11T02:15:45.422Z,99968.53
2022-10-11T02:18:19.178Z,99965.03
2022-10-11T02:20:47.904Z,99965.44
2022-10-11T02:23:20.733Z,99967.62
2022-10-11T02:25:49.230Z,99969.31
2022-10-11T02:28:22.206Z,99960.31
2022-10-11T02:30:51.335Z,99959.22
2022-10-11T02:33:31.976Z,99960.31
2022-10-11T02:36:05.917Z,99958.97
2022-10-11T02:38:43.479Z,99953.59
2022-10-11T02:41:29.987Z,99960.53
2022-10-11T02:44:06.779Z,99950.09
2022-10-11T02:46:35.726Z,99955.87
2022-10-11T02:49:03.587Z,99957.81
2022-10-11T02:51:31.287Z,99961.34
2022-10-11T02:53:59.440Z,99962.94
2022-10-11T02:56:27.104Z,99970.03
2022-10-11T02:58:54.949Z,99977.25
2022-10-11T03:01:23.184Z,99977.25
2022-10-11T03:03:50.922Z,99977.53
2022-10-11T03:06:18.776Z,99972.22
2022-10-11T03:08:46.767Z,99982.94
2022-10-11T03:11:14.499Z,99989.06
2022-10-11T03:13:42.220Z,99990.94
2022-10-11T03:16:10.488Z,99992.87
2022-10-11T03:18:38.668Z,99985.69
2022-10-11T03:21:06.466Z,99985.09
2022-10-11T03:23:35.164Z,99985.31
2022-10-11T03:26:03.295Z,99985.69
2022-10-11T03:28:31.528Z,99989.91
2022-10-11T03:30:59.867Z,99989.06
2022-10-11T03:33:27.509Z,99981.25
2022-10-11T03:35:55.107Z,99981.19
2022-10-11T03:38:22.988Z,99986.78
2022-10-11T03:40:50.993Z,99984.97
2022-10-11T03:43:18.802Z,99975.81
2022-10-11T03:45:46.749Z,99978.19
2022-10-11T03:48:14.460Z,99977.53
2022-10-11T03:50:42.276Z,99984.53
2022-10-11T03:53:10.206Z,99979.66
2022-10-11T03:55:39.006Z,99987.88
2022-10-11T03:58:06.880Z,99987.28
2022-10-11T04:00:35.262Z,99981.78
2022-10-11T04:03:03.586Z,99983.72
2022-10-11T04:05:31.258Z,99989.62
2022-10-11T04:07:58.887Z,99990.56
2022-10-11T04:10:26.949Z,99989.75
2022-10-11T04:12:54.579Z,99995.00
2022-10-11T04:15:22.151Z,99997.84
2022-10-11T04:17:50.693Z,99994.50
2022-10-11T04:20:18.906Z,100000.59
2022-10-11T04:22:46.475Z,100000.53
2022-10-11T04:25:14.498Z,100001.22
2022-10-11T04:27:42.209Z,100003.63
2022-10-11T04:30:10.692Z,100008.22
2022-10-11T04:32:38.780Z,100012.53
2022-10-11T04:35:06.573Z,100015.78
2022-10-11T04:37:34.378Z,100017.63
2022-10-11T04:40:02.300Z,100007.00
2022-10-11T04:42:30.361Z,100002.31
2022-10-11T04:44:57.979Z,100005.25
2022-10-11T04:47:25.965Z,100006.50
2022-10-11T04:49:53.751Z,100013.47
2022-10-11T04:52:25.513Z,100008.72
2022-10-11T04:54:54.274Z,100015.78
2022-10-11T04:57:22.179Z,100023.78
2022-10-11T04:59:50.501Z,100015.09
2022-10-11T05:02:18.727Z,100004.53
2022-10-11T05:04:46.370Z,100004.53
2022-10-11T05:07:14.020Z,100003.59
2022-10-11T05:09:41.974Z,100011.97
2022-10-11T05:12:09.845Z,100010.94
2022-10-11T05:14:37.483Z,100004.47
2022-10-11T05:17:05.643Z,100007.56
2022-10-11T05:19:33.390Z,100013.16
2022-10-11T05:22:01.072Z,100007.69
2022-10-11T05:24:29.004Z,100008.47
2022-10-11T05:26:59.795Z,100012.97
2022-10-11T05:29:31.058Z,100016.44
2022-10-11T05:31:58.625Z,100007.88
2022-10-11T05:34:26.237Z,100014.16
2022-10-11T05:36:54.241Z,100006.22
2022-10-11T05:39:21.920Z,100012.75
2022-10-11T05:41:49.558Z,100017.94
2022-10-11T05:44:17.808Z,100022.63
2022-10-11T05:46:45.518Z,100016.44
2022-10-11T05:49:13.122Z,100028.13
2022-10-11T05:51:41.081Z,100021.34
2022-10-11T05:54:08.714Z,100024.03
2022-10-11T05:56:36.315Z,100027.63
2022-10-11T05:59:04.657Z,100026.13
2022-10-11T06:01:32.397Z,100032.09
2022-10-11T06:04:00.440Z,100031.50
2022-10-11T06:06:28.135Z,100044.37
2022-10-11T06:08:55.673Z,100044.13
2022-10-11T06:11:26.373Z,100047.13
2022-10-11T06:13:55.204Z,100044.72
2022-10-11T06:16:23.196Z,100049.50
2022-10-11T06:18:57.460Z,100054.00
2022-10-11T06:21:25.583Z,100052.72
2022-10-11T06:23:59.904Z,100056.44
2022-10-11T06:26:29.305Z,100060.94
2022-10-11T06:28:57.460Z,100068.22
2022-10-11T06:31:25.056Z,100068.81
2022-10-11T06:33:52.983Z,100077.50
2022-10-11T06:36:20.804Z,100077.50
2022-10-11T06:38:52.107Z,100079.09
2022-10-11T06:41:25.456Z,100086.09
2022-10-11T06:43:53.468Z,100090.25
2022-10-11T06:46:22.797Z,100088.88
2022-10-11T06:48:50.890Z,100084.25
2022-10-11T06:51:20.499Z,100089.88
2022-10-11T06:53:52.630Z,100086.50
2022-10-11T06:56:20.494Z,100094.00
2022-10-11T06:58:48.495Z,100090.84
2022-10-11T07:01:16.774Z,100096.22
2022-10-11T07:03:44.789Z,100090.12
2022-10-11T07:06:17.824Z,100096.25
2022-10-11T07:08:46.013Z,100091.56
2022-10-11T07:11:16.412Z,100093.69
2022-10-11T07:13:49.504Z,100091.00
2022-10-11T07:16:17.822Z,100092.66
2022-10-11T07:18:46.289Z,100089.75
2022-10-11T07:21:15.614Z,100098.66
2022-10-11T07:23:43.624Z,100099.53
2022-10-11T07:26:11.868Z,100098.91
2022-10-11T07:28:40.334Z,100096.53
2022-10-11T07:31:14.102Z,100093.94
2022-10-11T07:33:41.986Z,100087.63
2022-10-11T07:36:11.330Z,100089.22
2022-10-11T07:38:40.453Z,100097.94
2022-10-11T07:41:08.290Z,100098.22
2022-10-11T07:43:37.185Z,100097.72
2022-10-11T07:46:05.608Z,100095.34
2022-10-11T07:48:35.203Z,100097.66
2022-10-11T07:51:09.854Z,100090.31
2022-10-11T07:53:48.013Z,100089.38
2022-10-11T07:56:22.144Z,100098.00
2022-10-11T07:58:54.938Z,100095.38
2022-10-11T08:01:23.170Z,100096.31
2022-10-11T08:03:51.168Z,100093.44
2022-10-11T08:06:21.603Z,100091.50
2022-10-11T08:08:49.458Z,100100.56
2022-10-11T08:11:32.628Z,100099.28
2022-10-11T08:14:00.744Z,100104.00
2022-10-11T08:16:28.614Z,100103.41
2022-10-11T08:18:56.549Z,100107.38
2022-10-11T08:21:24.522Z,100109.09
2022-10-11T08:23:52.610Z,100108.09
2022-10-11T08:26:21.028Z,100112.06
2022-10-11T08:28:48.804Z,100114.19
2022-10-11T08:31:16.944Z,100114.19
2022-10-11T08:33:44.726Z,100110.09
2022-10-11T08:36:13.118Z,100115.28
2022-10-11T08:38:41.481Z,100122.91
2022-10-11T08:41:21.702Z,100114.06
2022-10-11T08:43:55.699Z,100116.84
2022-10-11T08:46:27.220Z,100122.28
2022-10-11T08:48:55.285Z,100124.03
2022-10-11T08:51:48.366Z,100124.22
2022-10-11T08:54:19.167Z,100124.47
2022-10-11T08:56:46.957Z,100116.25
2022-10-11T08:59:31.458Z,100116.72
2022-10-11T09:02:21.420Z,100119.50
2022-10-11T09:04:51.158Z,100125.13
2022-10-11T09:07:38.123Z,100123.88
2022-10-11T09:10:43.464Z,100122.16
2022-10-11T09:13:30.827Z,100129.66
2022-10-11T09:16:02.310Z,100122.78
2022-10-11T09:18:53.015Z,100129.53
2022-10-11T09:21:45.812Z,100131.16
2022-10-11T09:24:42.647Z,100127.72
2022-10-11T09:27:19.660Z,100126.59
2022-10-11T09:30:05.815Z,100131.19
2022-10-11T09:32:38.794Z,100126.75
2022-10-11T09:35:15.954Z,100135.47
2022-10-11T09:37:56.244Z,100124.25
2022-10-11T09:40:38.751Z,100126.97
2022-10-11T09:43:08.036Z,100130.25
2022-10-11T09:45:35.983Z,100122.78
2022-10-11T09:48:05.759Z,100129.78
2022-10-11T09:50:33.459Z,100135.03
2022-10-11T09:53:03.783Z,100132.75
2022-10-11T09:55:33.153Z,100132.97
2022-10-11T09:58:02.973Z,100138.09
2022-10-11T10:00:32.801Z,100133.69
2022-10-11T10:03:02.817Z,100138.53
2022-10-11T10:05:34.121Z,100133.16
2022-10-11T10:08:11.332Z,100133.78
2022-10-11T10:10:41.873Z,100130.09
2022-10-11T10:13:38.993Z,100133.09
2022-10-11T10:16:07.335Z,100132.97
2022-10-11T10:18:48.167Z,100123.03
2022-10-11T10:21:16.036Z,100129.38
2022-10-11T10:23:44.247Z,100122.19
2022-10-11T10:26:16.690Z,100127.88
2022-10-11T10:29:10.307Z,100126.75
2022-10-11T10:32:13.378Z,100124.09
2022-10-11T10:35:03.494Z,100119.88
2022-10-11T10:37:38.933Z,100123.06
2022-10-11T10:40:16.687Z,100117.59
2022-10-11T10:42:44.392Z,100121.28
2022-10-11T10:45:21.106Z,100114.25
2022-10-11T10:48:10.109Z,100123.47
2022-10-11T10:50:55.034Z,100125.31
2022-10-11T10:53:38.022Z,100122.63
2022-10-11T10:56:15.743Z,100124.47
2022-10-11T10:58:50.922Z,100126.97
2022-10-11T11:01:31.089Z,100127.84
2022-10-11T11:04:20.665Z,100125.41
2022-10-11T11:06:52.183Z,100110.50
2022-10-11T11:09:31.999Z,100118.47
2022-10-11T11:12:05.892Z,100117.63
2022-10-11T11:14:59.937Z,100111.72
2022-10-11T11:17:46.633Z,100111.37
2022-10-11T11:20:26.890Z,100111.81
2022-10-11T11:23:13.458Z,100118.25
2022-10-11T11:25:45.083Z,100114.53
2022-10-11T11:28:26.471Z,100108.59
2022-10-11T11:31:12.835Z,100108.81
2022-10-11T11:33:52.829Z,100110.31
2022-10-11T11:36:28.102Z,100106.69
2022-10-11T11:38:59.573Z,100111.28
2022-10-11T11:41:31.061Z,100101.25
2022-10-11T11:44:16.242Z,100107.03
2022-10-11T11:46:55.628Z,100095.06
2022-10-11T11:49:34.357Z,100093.31
2022-10-11T11:52:04.556Z,100087.75
2022-10-11T11:54:54.066Z,100092.28
2022-10-11T11:58:03.332Z,100090.56
2022-10-11T12:00:57.562Z,100091.50
2022-10-11T12:03:30.672Z,100088.91
2022-10-11T12:06:13.709Z,100088.22
2022-10-11T12:08:44.800Z,100089.16
2022-10-11T12:11:30.568Z,100086.09
2022-10-11T12:14:15.951Z,100080.13
2022-10-11T12:17:05.233Z,100074.47
2022-10-11T12:19:33.352Z,100079.75
2022-10-11T12:22:56.837Z,100076.50
2022-10-11T12:25:27.553Z,100080.97
2022-10-11T12:27:55.830Z,100079.47
2022-10-11T12:30:42.447Z,100074.91
2022-10-11T12:33:49.881Z,100087.34
2022-10-11T12:36:40.409Z,100075.19
2022-10-11T12:39:20.183Z,100073.06
2022-10-11T12:41:47.832Z,100080.63
2022-10-11T12:44:18.363Z,100076.69
2022-10-11T12:46:51.580Z,100081.06
2022-10-11T12:49:25.299Z,100072.16
2022-10-11T12:51:58.678Z,100070.78
2022-10-11T12:54:50.443Z,100071.66
2022-10-11T12:57:45.931Z,100066.81
2022-10-11T13:00:27.333Z,100069.28
2022-10-11T13:03:02.157Z,100068.84
2022-10-11T13:05:44.784Z,100067.16
2022-10-11T13:08:22.547Z,100073.28
2022-10-11T13:10:51.198Z,100068.16
2022-10-11T13:13:26.168Z,100069.06
2022-10-11T13:15:56.385Z,100059.91
2022-10-11T13:18:25.304Z,100058.34
2022-10-11T13:20:53.089Z,100058.88
2022-10-11T13:23:27.692Z,100058.56
2022-10-11T13:25:56.955Z,100060.66
2022-10-11T13:28:25.207Z,100058.81
2022-10-11T13:30:54.898Z,100064.34
2022-10-11T13:33:28.703Z,100064.97
2022-10-11T13:35:57.275Z,100063.00
2022-10-11T13:38:29.018Z,100065.22
2022-10-11T13:40:58.915Z,100057.22
2022-10-11T13:43:28.982Z,100061.09
2022-10-11T13:46:01.586Z,100063.34
2022-10-11T13:48:31.847Z,100064.97
2022-10-11T13:51:06.423Z,100059.00
2022-10-11T13:53:35.012Z,100062.25
2022-10-11T13:56:06.246Z,100065.50
2022-10-11T13:58:39.778Z,100060.63
2022-10-11T14:01:19.456Z,100065.16
2022-10-11T14:03:49.881Z,100065.16
2022-10-11T14:06:20.945Z,100059.69
2022-10-11T14:08:53.276Z,100062.41
2022-10-11T14:11:38.193Z,100066.41
2022-10-11T14:14:30.984Z,100063.56
2022-10-11T14:17:05.202Z,100062.19
2022-10-11T14:19:33.190Z,100073.53
2022-10-11T14:22:00.875Z,100065.59
2022-10-11T14:24:28.750Z,100069.16
2022-10-11T14:26:56.960Z,100062.81
2022-10-11T14:29:27.659Z,100068.88
2022-10-11T14:31:56.773Z,100067.91
2022-10-11T14:34:25.949Z,100074.13
2022-10-11T14:36:53.722Z,100069.84
2022-10-11T14:39:23.413Z,100069.19
2022-10-11T14:41:52.441Z,100068.78
2022-10-11T14:44:21.633Z,100068.94
2022-10-11T14:46:52.439Z,100067.03
2022-10-11T14:49:24.659Z,100065.78
2022-10-11T14:51:56.891Z,100066.25
2022-10-11T14:54:29.260Z,100067.37
2022-10-11T14:56:58.816Z,100066.97
2022-10-11T14:59:31.487Z,100071.94
2022-10-11T15:01:59.331Z,100069.69
2022-10-11T15:04:27.969Z,100060.16
2022-10-11T15:06:57.662Z,100061.28
2022-10-11T15:09:29.399Z,100063.44
2022-10-11T15:11:57.361Z,100065.72
2022-10-11T15:14:25.533Z,100061.63
2022-10-11T15:16:53.589Z,100061.97
2022-10-11T15:19:23.787Z,100075.25
2022-10-11T15:21:54.194Z,100084.75
2022-10-11T15:24:21.886Z,100078.97
2022-10-11T15:26:55.179Z,100077.50
2022-10-11T15:29:26.050Z,100082.00
2022-10-11T15:31:56.304Z,100091.63
2022-10-11T15:34:27.259Z,100085.34
2022-10-11T15:36:54.890Z,100088.78
2022-10-11T15:39:30.554Z,100088.31
2022-10-11T15:41:58.831Z,100089.13
2022-10-11T15:44:26.454Z,100094.78
2022-10-11T15:46:54.153Z,100089.62
2022-10-11T15:49:22.090Z,100093.63
2022-10-11T15:51:49.748Z,100093.34
2022-10-11T15:54:17.531Z,100088.78
2022-10-11T15:56:45.523Z,100091.16
2022-10-11T15:59:13.236Z,100089.22
2022-10-11T16:01:40.948Z,100100.94
2022-10-11T16:04:09.382Z,100102.25
2022-10-11T16:06:36.895Z,100103.25
2022-10-11T16:09:05.307Z,100103.44
2022-10-11T16:11:33.205Z,100106.03
2022-10-11T16:14:03.677Z,100107.31
2022-10-11T16:16:31.245Z,100109.88
2022-10-11T16:18:59.222Z,100105.53
2022-10-11T16:21:26.866Z,100111.63
2022-10-11T16:23:54.490Z,100118.31
2022-10-11T16:26:22.403Z,100120.22
2022-10-11T16:28:50.166Z,100125.66
2022-10-11T16:31:18.472Z,100125.94
2022-10-11T16:33:46.725Z,100124.81
2022-10-11T16:36:16.684Z,100127.47
2022-10-11T16:38:44.449Z,100130.72
2022-10-11T16:41:12.517Z,100128.25
2022-10-11T16:43:40.286Z,100131.53
2022-10-11T16:46:08.337Z,100127.81
2022-10-11T16:48:37.398Z,100134.31
2022-10-11T16:51:06.812Z,100135.72
2022-10-11T16:53:34.957Z,100142.41
2022-10-11T16:56:10.127Z,100142.81
2022-10-11T16:58:41.698Z,100136.13
2022-10-11T17:01:11.047Z,100142.75
2022-10-11T17:03:39.566Z,100150.94
2022-10-11T17:06:07.791Z,100145.59
2022-10-11T17:08:36.311Z,100151.44
2022-10-11T17:11:06.507Z,100143.47
2022-10-11T17:13:34.771Z,100142.66
2022-10-11T17:16:03.066Z,100151.41
2022-10-11T17:18:32.208Z,100149.84
2022-10-11T17:21:03.845Z,100150.88
2022-10-11T17:23:37.913Z,100149.28
2022-10-11T17:26:11.224Z,100144.97
2022-10-11T17:28:39.775Z,100150.31
2022-10-11T17:31:14.070Z,100157.12
2022-10-11T17:33:41.955Z,100145.87
2022-10-11T17:36:32.493Z,100158.22
2022-10-11T17:39:06.133Z,100163.69
2022-10-11T17:41:34.086Z,100161.56
2022-10-11T17:44:02.163Z,100161.09
2022-10-11T17:46:30.232Z,100159.78
2022-10-11T17:48:58.829Z,100168.56
2022-10-11T17:51:26.982Z,100168.22
2022-10-11T17:53:57.476Z,100169.69
2022-10-11T17:56:31.443Z,100173.50
2022-10-11T17:59:10.437Z,100174.78
2022-10-11T18:01:38.325Z,100170.97
2022-10-11T18:04:06.328Z,100165.28
2022-10-11T18:06:38.535Z,100167.16
2022-10-11T18:09:07.134Z,100174.41
2022-10-11T18:11:35.488Z,100172.28
2022-10-11T18:14:03.917Z,100171.84
2022-10-11T18:16:32.620Z,100167.19
2022-10-11T18:19:02.507Z,100173.28
2022-10-11T18:21:34.300Z,100175.19
2022-10-11T18:24:05.549Z,100178.84
2022-10-11T18:26:33.777Z,100178.25
2022-10-11T18:29:01.438Z,100181.00
2022-10-11T18:31:31.750Z,100175.91
2022-10-11T18:33:59.695Z,100175.09
2022-10-11T18:36:29.713Z,100178.59
2022-10-11T18:39:01.255Z,100179.69
2022-10-11T18:41:30.940Z,100181.47
2022-10-11T18:44:02.437Z,100187.66
2022-10-11T18:46:30.662Z,100189.28
2022-10-11T18:48:59.587Z,100185.22
2022-10-11T18:51:32.981Z,100180.66
2022-10-11T18:54:05.655Z,100171.75
2022-10-11T18:56:35.895Z,100177.78
2022-10-11T18:59:05.377Z,100178.00
2022-10-11T19:01:41.559Z,100182.44
2022-10-11T19:04:11.336Z,100177.00
2022-10-11T19:06:42.136Z,100178.56
2022-10-11T19:09:13.170Z,100177.53
2022-10-11T19:11:41.323Z,100176.91
2022-10-11T19:14:11.572Z,100191.84
2022-10-11T19:16:41.734Z,100182.94
2022-10-11T19:19:11.601Z,100182.44
2022-10-11T19:21:39.482Z,100181.50
2022-10-11T19:24:07.560Z,100176.63
2022-10-11T19:26:37.416Z,100188.34
2022-10-11T19:29:17.113Z,100181.66
2022-10-11T19:31:50.128Z,100183.37
2022-10-11T19:34:18.382Z,100185.91
2022-10-11T19:36:46.467Z,100190.03
2022-10-11T19:39:18.134Z,100190.66
2022-10-11T19:41:46.530Z,100183.81
2022-10-11T19:44:14.435Z,100187.16
2022-10-11T19:46:51.469Z,100188.69
2022-10-11T19:49:22.894Z,100183.69
2022-10-11T19:51:51.595Z,100189.41
2022-10-11T19:54:19.618Z,100192.63
2022-10-11T19:56:47.372Z,100189.66
2022-10-11T19:59:15.675Z,100192.63
2022-10-11T20:01:46.836Z,100199.09
2022-10-11T20:07:08.157Z,100191.66
2022-10-11T20:09:36.085Z,100195.22
2022-10-11T20:12:03.811Z,100202.00
2022-10-11T20:14:31.489Z,100202.50
2022-10-11T20:16:59.345Z,100205.59
2022-10-11T20:19:30.710Z,100202.00
2022-10-11T20:22:00.483Z,100207.69
2022-10-11T20:24:28.499Z,100208.78
2022-10-11T20:26:56.173Z,100201.41
2022-10-11T20:29:24.921Z,100202.69
2022-10-11T20:31:52.621Z,100200.81
2022-10-11T20:34:20.449Z,100194.00
2022-10-11T20:36:49.428Z,100195.00
2022-10-11T20:39:17.162Z,100200.41
2022-10-11T20:41:44.832Z,100195.91
2022-10-11T20:44:12.746Z,100201.22
2022-10-11T20:46:40.400Z,100209.13
2022-10-11T20:49:10.162Z,100205.59
2022-10-11T20:51:39.265Z,100207.50
2022-10-11T20:54:07.248Z,100209.28
2022-10-11T20:56:35.224Z,100206.59
2022-10-11T20:59:03.390Z,100199.13
2022-10-11T21:01:33.491Z,100206.87
2022-10-11T21:04:01.716Z,100206.50
2022-10-11T21:06:30.784Z,100209.00
2022-10-11T21:08:59.319Z,100201.09
2022-10-11T21:11:31.691Z,100209.00
2022-10-11T21:14:01.681Z,100217.78
2022-10-11T21:16:29.395Z,100210.00
2022-10-11T21:18:58.412Z,100211.00
2022-10-11T21:21:27.404Z,100219.97
2022-10-11T21:24:02.168Z,100211.47
2022-10-11T21:26:30.838Z,100216.28
2022-10-11T21:28:58.649Z,100207.91
2022-10-11T21:31:31.099Z,100207.97
2022-10-11T21:34:02.183Z,100208.97
2022-10-11T21:36:29.770Z,100213.16
2022-10-11T21:38:57.437Z,100208.25
2022-10-11T21:41:26.984Z,100205.34
2022-10-11T21:43:54.594Z,100207.56
2022-10-11T21:46:47.530Z,100208.38
2022-10-11T21:49:15.827Z,100201.09
2022-10-11T21:51:43.570Z,100205.09
2022-10-11T21:54:11.492Z,100209.87
2022-10-11T21:56:39.530Z,100211.62
2022-10-11T21:59:11.087Z,100209.19
2022-10-11T22:01:40.954Z,100205.09
2022-10-11T22:04:09.302Z,100215.91
2022-10-11T22:06:37.528Z,100212.78
2022-10-11T22:09:05.915Z,100223.37
2022-10-11T22:11:34.222Z,100214.06
2022-10-11T22:14:01.848Z,100215.78
2022-10-11T22:16:29.562Z,100212.59
2022-10-11T22:18:57.633Z,100211.19
2022-10-11T22:21:25.328Z,100213.09
2022-10-11T22:23:53.926Z,100214.00
2022-10-11T22:26:24.585Z,100213.87
2022-10-11T22:28:52.657Z,100208.69
2022-10-11T22:31:21.392Z,100215.22
2022-10-11T22:33:53.501Z,100214.28
2022-10-11T22:36:21.256Z,100212.59
2022-10-11T22:38:49.336Z,100210.78
2022-10-11T22:41:17.021Z,100211.09
2022-10-11T22:43:44.670Z,100211.59
2022-10-11T22:46:12.566Z,100213.19
2022-10-11T22:48:40.509Z,100215.28
2022-10-11T22:51:08.142Z,100216.00
2022-10-11T22:53:36.075Z,100220.19
2022-10-11T22:56:03.731Z,100216.31
2022-10-11T22:58:31.326Z,100207.09
2022-10-11T23:01:06.581Z,100211.59
2022-10-11T23:03:34.232Z,100210.00
2022-10-11T23:06:02.565Z,100208.69
2022-10-11T23:08:30.487Z,100207.19
2022-10-11T23:11:03.224Z,100208.59
2022-10-11T23:13:31.191Z,100213.09
2022-10-11T23:15:58.905Z,100216.31
2022-10-11T23:18:26.587Z,100210.72
2022-10-11T23:20:54.645Z,100215.19
2022-10-11T23:23:22.153Z,100216.50
2022-10-11T23:25:49.992Z,100219.81
2022-10-11T23:28:18.040Z,100221.00
2022-10-11T23:30:45.680Z,100230.59
2022-10-11T23:33:13.301Z,100229.47
2022-10-11T23:35:41.291Z,100231.38
2022-10-11T23:38:08.925Z,100230.47
2022-10-11T23:40:38.187Z,100228.97
2022-10-11T23:43:06.522Z,100228.19
2022-10-11T23:45:34.111Z,100228.47
2022-10-11T23:48:01.812Z,100225.72
2022-10-11T23:50:29.734Z,100229.25
2022-10-11T23:52:57.295Z,100234.09
2022-10-11T23:55:24.914Z,100240.50
2022-10-11T23:57:52.920Z,100243.44
